Time;durP1;ratioP1;P1;durP2;ratioP2;P2;SDS_P1;SDS_P2;PMS_P1;PMS_P2;Temp;Humidity;BMP_temperature;BMP_pressure;BME280_temperature;BME280_humidity;BME280_pressure;Samples;Min_cycle;Max_cycle;Signal;HPM_P1;HPM_P2
2022/05/29 00:00:18;;;;;;;7.00;5.13;;;;;;;20.96;100.00;99624.06;5075045;28;20951;-73
2022/05/29 00:02:45;;;;;;;12.23;6.03;;;;;;;20.79;100.00;99622.00;5075714;28;20198;-73
2022/05/29 00:05:13;;;;;;;8.40;5.28;;;;;;;20.85;100.00;99656.06;5089547;28;20199;-73
2022/05/29 00:07:40;;;;;;;13.27;5.85;;;;;;;20.66;100.00;99662.84;5071663;28;20281;-73
2022/05/29 00:10:11;;;;;;;11.30;5.72;;;;;;;20.56;100.00;99674.59;5079629;28;20298;-73
2022/05/29 00:12:39;;;;;;;11.45;5.65;;;;;;;20.52;100.00;99675.59;5074926;28;20321;-73
2022/05/29 00:15:07;;;;;;;11.93;5.97;;;;;;;20.54;100.00;99673.78;5070975;28;20191;-72
2022/05/29 00:17:34;;;;;;;8.05;5.20;;;;;;;20.78;100.00;99691.44;5086928;28;20277;-73
2022/05/29 00:20:01;;;;;;;16.10;5.97;;;;;;;20.69;100.00;99689.09;5091172;28;20668;-73
2022/05/29 00:22:31;;;;;;;6.95;5.10;;;;;;;20.78;100.00;99699.34;5087598;28;20259;-73
2022/05/29 00:24:58;;;;;;;7.20;6.05;;;;;;;20.52;100.00;99675.59;5083240;28;20220;-73
2022/05/29 00:27:25;;;;;;;10.80;5.30;;;;;;;20.68;100.00;99650.50;5091574;28;20202;-73
2022/05/29 00:29:52;;;;;;;8.38;6.35;;;;;;;20.69;100.00;99604.78;5081012;28;20209;-73
2022/05/29 00:32:18;;;;;;;11.10;5.95;;;;;;;20.85;100.00;99626.19;5075726;28;20776;-73
2022/05/29 00:34:45;;;;;;;8.75;5.13;;;;;;;20.75;100.00;99620.38;5055034;28;20203;-73
2022/05/29 00:37:13;;;;;;;7.30;6.13;;;;;;;20.71;100.00;99605.59;5081453;28;20202;-73
2022/05/29 00:39:41;;;;;;;9.60;6.60;;;;;;;20.59;100.00;99632.34;5090716;28;20236;-73
2022/05/29 00:42:11;;;;;;;11.32;6.95;;;;;;;20.37;100.00;99603.19;5091016;28;20214;-73
2022/05/29 00:44:38;;;;;;;9.82;6.82;;;;;;;20.80;100.00;99644.78;5072357;28;20210;-73
2022/05/29 00:47:12;;;;;;;8.85;6.30;;;;;;;20.90;100.00;99629.56;5070875;28;20207;-73
2022/05/29 00:49:41;;;;;;;9.77;6.82;;;;;;;20.83;100.00;99634.19;5077936;28;20700;-73
2022/05/29 00:52:12;;;;;;;9.98;7.07;;;;;;;20.50;100.00;99614.22;5082423;28;20250;-73
2022/05/29 00:54:43;;;;;;;9.02;7.70;;;;;;;20.70;100.00;99652.16;5035244;28;20202;-72
2022/05/29 00:57:16;;;;;;;14.50;7.57;;;;;;;20.63;100.00;99662.94;5070958;28;20294;-73
2022/05/29 00:59:45;;;;;;;10.18;7.00;;;;;;;20.74;100.00;99655.53;5070618;28;20207;-73
2022/05/29 01:02:12;;;;;;;8.85;7.22;;;;;;;20.73;100.00;99657.31;5070466;28;20325;-73
2022/05/29 01:04:42;;;;;;;11.68;7.28;;;;;;;20.84;100.00;99650.81;5086993;28;20202;-73
2022/05/29 01:07:15;;;;;;;8.18;6.38;;;;;;;20.80;100.00;99639.53;5090589;28;20194;-73
2022/05/29 01:09:47;;;;;;;9.00;6.90;;;;;;;20.84;100.00;99653.47;5075436;28;20248;-73
2022/05/29 01:12:30;;;;;;;9.85;6.25;;;;;;;20.90;100.00;99646.22;5076828;28;20232;-73
2022/05/29 01:15:07;;;;;;;12.50;6.93;;;;;;;20.94;100.00;99629.38;5076454;28;20206;-73
2022/05/29 01:17:43;;;;;;;10.27;6.63;;;;;;;20.59;100.00;99556.81;5085243;28;20738;-73
2022/05/29 01:20:31;;;;;;;11.80;6.68;;;;;;;21.01;100.00;99614.22;5021753;28;20205;-73
2022/05/29 01:23:40;;;;;;;12.00;7.30;;;;;;;20.95;100.00;99595.97;5070424;28;20273;-73
2022/05/29 01:26:39;;;;;;;8.68;7.53;;;;;;;20.67;100.00;99586.38;4988872;28;20677;-73
2022/05/29 01:29:09;;;;;;;13.52;7.25;;;;;;;20.77;100.00;99602.75;4992034;28;20211;-73
2022/05/29 01:31:47;;;;;;;14.10;9.40;;;;;;;20.78;100.00;99609.75;5007702;28;20639;-73
2022/05/29 01:34:29;;;;;;;10.48;7.63;;;;;;;20.88;100.00;99613.78;5000596;28;20225;-73
2022/05/29 01:37:15;;;;;;;11.32;7.68;;;;;;;20.73;100.00;99606.38;4970134;28;20590;-73
2022/05/29 01:39:52;;;;;;;9.98;7.72;;;;;;;20.73;100.00;99612.53;4949344;28;20210;-73
2022/05/29 01:42:26;;;;;;;13.00;8.65;;;;;;;20.73;100.00;99620.44;4949493;29;20702;-73
2022/05/29 01:44:59;;;;;;;15.93;8.65;;;;;;;20.69;100.00;99625.88;4937282;28;20238;-73
2022/05/29 01:47:32;;;;;;;11.38;8.07;;;;;;;20.60;100.00;99628.78;4935746;29;20207;-73
2022/05/29 01:50:04;;;;;;;13.02;8.57;;;;;;;20.54;100.00;99616.69;4949443;28;20198;-73
2022/05/29 01:52:34;;;;;;;12.88;9.05;;;;;;;20.64;100.00;99627.78;4933359;29;20269;-73
2022/05/29 01:55:10;;;;;;;11.73;9.25;;;;;;;20.68;100.00;99639.94;4907783;29;20219;-73
2022/05/29 01:57:43;;;;;;;11.35;8.45;;;;;;;20.74;100.00;99630.06;4930424;29;20200;-73
2022/05/29 02:00:16;;;;;;;15.35;8.45;;;;;;;20.72;100.00;99628.41;4961754;28;20589;-73
2022/05/29 02:02:50;;;;;;;10.13;8.55;;;;;;;20.67;100.00;99611.88;5007845;28;20201;-73
2022/05/29 02:05:22;;;;;;;10.25;8.52;;;;;;;20.72;100.00;99605.56;5016633;28;20197;-73
2022/05/29 02:07:56;;;;;;;9.15;8.15;;;;;;;20.77;100.00;99613.28;5007706;28;20361;-73
2022/05/29 02:10:33;;;;;;;12.25;8.82;;;;;;;20.70;100.00;99622.31;5007466;28;20222;-73
2022/05/29 02:13:07;;;;;;;12.57;8.98;;;;;;;20.63;100.00;99623.41;5008921;28;20363;-73
2022/05/29 02:15:45;;;;;;;12.60;9.40;;;;;;;20.61;100.00;99623.50;5025471;28;20381;-73
2022/05/29 02:18:19;;;;;;;13.07;9.05;;;;;;;20.39;100.00;99579.47;5089889;28;20200;-73
2022/05/29 02:20:51;;;;;;;12.13;9.27;;;;;;;20.58;100.00;99622.72;5089711;28;20198;-73
2022/05/29 02:23:23;;;;;;;13.30;8.88;;;;;;;20.25;100.00;99604.44;5085573;28;20700;-73
2022/05/29 02:25:53;;;;;;;13.90;9.18;;;;;;;20.34;100.00;99639.31;5080547;28;20213;-73
2022/05/29 02:28:25;;;;;;;11.50;8.88;;;;;;;20.44;100.00;99638.13;5069771;28;20655;-73
2022/05/29 02:31:04;;;;;;;13.20;8.90;;;;;;;20.42;100.00;99645.19;5069825;28;20227;-73
2022/05/29 02:33:40;;;;;;;15.70;8.88;;;;;;;20.46;100.00;99671.41;5069429;28;20226;-73
2022/05/29 02:36:21;;;;;;;11.90;9.23;;;;;;;20.45;100.00;99674.06;5054829;28;20571;-73
2022/05/29 02:39:00;;;;;;;10.75;8.98;;;;;;;20.35;100.00;99678.75;5034254;28;20226;-73
2022/05/29 02:41:37;;;;;;;17.35;9.25;;;;;;;19.86;100.00;99615.34;5072449;28;20209;-73
2022/05/29 02:44:13;;;;;;;12.38;9.30;;;;;;;20.25;100.00;99667.63;5074180;28;20882;-73
2022/05/29 02:46:47;;;;;;;12.18;9.13;;;;;;;20.21;100.00;99644.94;5072620;28;20194;-73
2022/05/29 02:49:21;;;;;;;13.50;8.68;;;;;;;20.35;100.00;99683.16;5072808;28;20194;-73
2022/05/29 02:51:51;;;;;;;13.57;9.70;;;;;;;20.21;100.00;99681.78;5073273;28;20282;-74
2022/05/29 02:54:25;;;;;;;15.88;10.50;;;;;;;20.32;100.00;99692.03;5079591;28;20222;-73
2022/05/29 02:56:52;;;;;;;17.38;9.32;;;;;;;20.39;100.00;99654.06;5092441;28;20198;-73
2022/05/29 02:59:20;;;;;;;16.65;10.52;;;;;;;20.59;100.00;99658.69;5093082;28;20194;-73
2022/05/29 03:01:55;;;;;;;16.10;10.27;;;;;;;20.61;100.00;99664.78;5084589;28;20602;-73
2022/05/29 03:04:34;;;;;;;10.25;8.55;;;;;;;20.79;100.00;99669.44;5078645;28;20255;-73
2022/05/29 03:07:06;;;;;;;15.82;9.57;;;;;;;20.85;100.00;99656.06;5092667;28;20202;-73
2022/05/29 03:09:52;;;;;;;16.00;9.40;;;;;;;21.04;100.00;99662.44;5090638;28;20702;-73
2022/05/29 03:12:32;;;;;;;12.50;8.52;;;;;;;20.91;100.00;99647.94;5085454;28;20202;-73
2022/05/29 03:15:12;;;;;;;9.93;8.70;;;;;;;20.77;100.00;99639.63;5065027;28;20206;-73
2022/05/29 03:17:46;;;;;;;14.38;8.52;;;;;;;20.68;100.00;99613.59;5072344;28;20203;-74
2022/05/29 03:20:20;;;;;;;12.63;8.50;;;;;;;20.50;100.00;99616.84;5077964;28;20198;-74
2022/05/29 03:23:00;;;;;;;12.45;7.85;;;;;;;20.57;100.00;99615.72;5038405;28;20197;-74
2022/05/29 03:25:34;;;;;;;8.73;7.82;;;;;;;20.36;100.00;99603.25;5073416;28;20232;-74
2022/05/29 03:28:03;;;;;;;11.57;9.90;;;;;;;20.51;100.00;99635.22;5074246;28;20214;-74
2022/05/29 03:30:33;;;;;;;11.75;8.68;;;;;;;20.61;100.00;99634.03;5083085;28;20203;-74
2022/05/29 03:33:04;;;;;;;13.60;9.55;;;;;;;20.91;100.00;99650.56;5073304;28;20585;-74
2022/05/29 03:35:33;;;;;;;13.73;9.90;;;;;;;21.18;100.00;99654.06;5025037;28;20196;-74
2022/05/29 03:38:01;;;;;;;12.00;9.27;;;;;;;21.45;100.00;99665.41;5073334;28;20288;-74
2022/05/29 03:40:31;;;;;;;13.48;8.48;;;;;;;21.68;100.00;99674.25;5071912;28;20195;-74
2022/05/29 03:42:59;;;;;;;11.43;9.00;;;;;;;21.51;100.00;99667.84;5072711;28;20636;-74
2022/05/29 03:45:26;;;;;;;12.48;8.25;;;;;;;21.49;100.00;99656.47;5070890;28;20199;-74
2022/05/29 03:47:53;;;;;;;9.35;8.35;;;;;;;21.39;100.00;99636.63;5070174;28;20198;-74
2022/05/29 03:50:23;;;;;;;14.75;8.57;;;;;;;21.66;100.00;99654.94;5035533;28;20204;-75
2022/05/29 03:52:50;;;;;;;10.52;7.47;;;;;;;21.36;100.00;99656.06;5071879;28;20211;-75
2022/05/29 03:55:20;;;;;;;13.63;7.15;;;;;;;21.32;100.00;99650.94;5075233;28;20195;-74
2022/05/29 03:57:47;;;;;;;9.30;6.82;;;;;;;21.32;100.00;99632.50;5073930;28;20205;-74
2022/05/29 04:00:15;;;;;;;7.72;6.03;;;;;;;20.98;100.00;99604.63;5071175;28;20199;-73
2022/05/29 04:02:42;;;;;;;7.25;6.15;;;;;;;20.85;100.00;99619.16;5072865;28;20209;-73
2022/05/29 04:05:10;;;;;;;10.07;6.53;;;;;;;21.08;100.00;99619.22;5091612;28;20201;-73
2022/05/29 04:13:07;;;;;;;9.77;6.97;;;;;;;21.22;100.00;99616.97;5064070;28;20221;-73
2022/05/29 04:15:35;;;;;;;7.35;6.63;;;;;;;21.13;100.00;99638.41;5029807;28;20188;-74
2022/05/29 04:18:03;;;;;;;10.52;7.57;;;;;;;21.20;100.00;99645.19;5070179;28;20211;-73
2022/05/29 04:20:30;;;;;;;10.85;7.68;;;;;;;20.96;100.00;99613.53;5060262;28;20195;-77
2022/05/29 04:22:58;;;;;;;8.98;7.43;;;;;;;21.25;100.00;99647.69;5085392;28;20206;-74
2022/05/29 04:25:25;;;;;;;10.75;6.72;;;;;;;21.31;100.00;99642.16;5071470;28;20671;-74
2022/05/29 04:27:52;;;;;;;8.48;7.00;;;;;;;21.10;100.00;99627.97;5080906;28;20209;-74
2022/05/29 04:30:19;;;;;;;11.02;6.80;;;;;;;21.15;100.00;99655.03;5089629;28;20213;-73
2022/05/29 04:33:01;;;;;;;10.30;7.07;;;;;;;21.58;100.00;99672.00;5072506;28;20678;-73
2022/05/29 04:35:28;;;;;;;9.70;7.75;;;;;;;21.89;100.00;99679.63;5071333;28;20582;-73
2022/05/29 04:37:55;;;;;;;9.18;7.30;;;;;;;22.02;100.00;99665.94;5070953;28;20762;-72
2022/05/29 04:40:23;;;;;;;15.18;7.95;;;;;;;22.48;100.00;99691.41;5070677;28;20658;-72
2022/05/29 04:42:50;;;;;;;9.77;7.95;;;;;;;21.98;100.00;99656.41;5081739;28;20624;-78
2022/05/29 04:45:17;;;;;;;11.13;8.10;;;;;;;21.99;100.00;99652.00;5070825;28;20207;-73
2022/05/29 04:47:44;;;;;;;13.40;8.63;;;;;;;21.54;100.00;99641.34;5076606;28;20206;-72
2022/05/29 04:50:11;;;;;;;16.60;8.77;;;;;;;21.46;100.00;99652.19;5071410;28;20198;-74
2022/05/29 04:52:38;;;;;;;14.60;9.05;;;;;;;21.37;100.00;99625.28;5070378;28;20260;-72
2022/05/29 04:55:06;;;;;;;9.10;8.15;;;;;;;21.12;100.00;99626.13;5072874;28;20226;-74
2022/05/29 04:57:34;;;;;;;17.73;9.40;;;;;;;21.36;100.00;99624.41;5070465;28;20209;-75
2022/05/29 05:00:01;;;;;;;13.05;8.68;;;;;;;21.33;100.00;99628.94;5087000;28;20201;-74
2022/05/29 05:02:28;;;;;;;12.13;9.20;;;;;;;21.32;100.00;99627.22;5072103;28;20213;-74
2022/05/29 05:04:55;;;;;;;13.80;8.77;;;;;;;21.12;100.00;99588.34;5088709;28;20734;-74
2022/05/29 05:07:22;;;;;;;12.10;8.90;;;;;;;20.91;100.00;99568.00;5090011;28;20194;-73
2022/05/29 05:09:49;;;;;;;12.85;9.45;;;;;;;21.16;100.00;99611.94;5088303;28;20199;-73
2022/05/29 05:12:16;;;;;;;17.52;10.05;;;;;;;21.19;100.00;99603.91;5054073;28;20198;-75
2022/05/29 05:14:44;;;;;;;14.77;9.70;;;;;;;21.18;100.00;99578.47;5088977;28;20218;-75
2022/05/29 05:17:11;;;;;;;12.90;9.13;;;;;;;21.45;100.00;99602.09;5072837;28;20264;-75
2022/05/29 05:19:38;;;;;;;17.38;9.43;;;;;;;21.67;100.00;99590.69;5077421;28;20198;-70
2022/05/29 05:22:08;;;;;;;16.33;9.88;;;;;;;21.62;100.00;99599.69;5077262;28;20717;-73
2022/05/29 05:24:37;;;;;;;12.43;8.35;;;;;;;21.74;100.00;99578.13;5071217;28;20206;-76
2022/05/29 05:27:04;;;;;;;16.05;9.15;;;;;;;22.11;100.00;99593.44;5090193;28;20200;-78
2022/05/29 05:29:31;;;;;;;11.60;8.55;;;;;;;22.19;100.00;99565.78;5044959;28;20910;-75
2022/05/29 05:31:59;;;;;;;10.98;7.43;;;;;;;22.15;100.00;99556.25;5071482;28;20199;-74
2022/05/29 05:34:27;;;;;;;9.77;7.10;;;;;;;22.07;100.00;99550.44;5070919;28;20217;-75
2022/05/29 05:36:54;;;;;;;9.75;6.38;;;;;;;22.95;100.00;99596.97;5081271;28;20278;-75
2022/05/29 05:39:21;;;;;;;7.90;5.13;;;;;;;23.60;100.00;99622.34;5082743;28;20206;-75
2022/05/29 05:41:48;;;;;;;10.00;5.20;;;;;;;23.70;100.00;99627.13;5080294;28;20278;-73
2022/05/29 05:44:14;;;;;;;11.65;6.82;;;;;;;23.71;100.00;99622.72;5089160;28;20657;-74
2022/05/29 05:46:45;;;;;;;14.60;9.85;;;;;;;23.38;100.00;99618.88;5076877;28;20259;-74
2022/05/29 05:49:13;;;;;;;12.07;7.03;;;;;;;23.48;100.00;99621.09;5088191;28;20263;-74
2022/05/29 05:51:40;;;;;;;6.65;5.78;;;;;;;22.90;100.00;99603.41;5050181;28;20242;-74
2022/05/29 05:54:07;;;;;;;10.77;6.22;;;;;;;23.06;100.00;99628.25;5015612;28;20620;-73
2022/05/29 05:56:34;;;;;;;10.88;6.03;;;;;;;23.32;100.00;99622.69;5070440;28;20289;-72
2022/05/29 05:59:01;;;;;;;6.47;5.60;;;;;;;23.57;100.00;99598.66;5070489;28;20285;-73
2022/05/29 06:01:27;;;;;;;8.00;6.22;;;;;;;23.90;100.00;99607.66;5076596;28;20206;-73
2022/05/29 06:03:54;;;;;;;8.32;6.10;;;;;;;24.08;100.00;99617.38;5073939;28;20205;-74
2022/05/29 06:06:22;;;;;;;7.00;5.13;;;;;;;24.03;100.00;99608.81;5069856;28;20206;-70
2022/05/29 06:08:49;;;;;;;9.52;5.60;;;;;;;23.90;100.00;99618.25;5043999;28;20225;-71
2022/05/29 06:11:16;;;;;;;6.80;5.28;;;;;;;24.03;100.00;99603.53;5087675;28;20194;-74
2022/05/29 06:13:43;;;;;;;10.75;5.50;;;;;;;24.43;100.00;99612.22;5075649;28;20226;-73
2022/05/29 06:16:11;;;;;;;7.53;5.88;;;;;;;24.31;100.00;99618.13;5073632;28;20217;-72
2022/05/29 06:18:39;;;;;;;7.00;5.38;;;;;;;24.11;100.00;99596.03;5064414;28;20196;-73
2022/05/29 06:21:06;;;;;;;8.88;5.60;;;;;;;24.47;100.00;99605.84;5079610;28;20211;-74
2022/05/29 06:23:35;;;;;;;7.93;5.10;;;;;;;24.25;100.00;99597.22;5074043;28;20267;-75
2022/05/29 06:26:03;;;;;;;7.03;5.70;;;;;;;24.03;100.00;99597.38;5073699;28;20242;-74
2022/05/29 06:28:30;;;;;;;8.93;5.55;;;;;;;23.82;100.00;99593.94;5074243;28;20199;-73
2022/05/29 06:30:57;;;;;;;9.55;5.90;;;;;;;24.13;100.00;99618.06;5074142;28;20214;-71
2022/05/29 06:33:26;;;;;;;8.05;5.80;;;;;;;23.89;100.00;99600.66;5093412;28;20202;-71
2022/05/29 06:35:52;;;;;;;9.65;5.18;;;;;;;23.41;100.00;99609.06;5093982;28;20213;-73
2022/05/29 06:38:19;;;;;;;9.80;5.93;;;;;;;23.39;100.00;99602.09;5079294;28;20198;-71
2022/05/29 06:40:49;;;;;;;13.10;5.97;;;;;;;23.23;100.00;99592.19;5087102;28;20202;-71
2022/05/29 06:43:17;;;;;;;9.05;5.93;;;;;;;22.88;100.00;99603.44;5093493;28;20195;-74
2022/05/29 06:45:44;;;;;;;11.07;5.85;;;;;;;22.83;100.00;99615.16;5093508;28;20289;-73
2022/05/29 06:48:10;;;;;;;119.13;70.40;;;;;;;22.84;100.00;99616.84;5081450;28;20202;-73
2022/05/29 06:50:37;;;;;;;18.25;12.13;;;;;;;22.52;100.00;99594.38;5090740;28;20198;-73
2022/05/29 06:53:04;;;;;;;10.30;6.93;;;;;;;22.61;100.00;99597.53;5086723;28;20207;-74
2022/05/29 06:55:31;;;;;;;9.05;7.07;;;;;;;22.68;100.00;99603.44;5072720;28;20230;-73
2022/05/29 06:57:59;;;;;;;9.02;6.63;;;;;;;22.48;100.00;99535.50;5072709;28;20538;-73
2022/05/29 07:08:39;;;;;;;5.95;5.35;;;;;;;22.80;100.00;99610.84;5082213;28;20270;-71
2022/05/29 07:11:10;;;;;;;11.82;7.00;;;;;;;22.92;100.00;99626.19;5074147;28;20251;-71
2022/05/29 07:13:38;;;;;;;6.00;4.90;;;;;;;22.85;100.00;99574.50;5092135;28;20197;-72
2022/05/29 07:16:06;;;;;;;5.78;4.72;;;;;;;23.01;100.00;99625.78;5092780;28;20533;-72
2022/05/29 07:18:33;;;;;;;6.25;5.07;;;;;;;22.70;100.00;99620.09;5039807;28;20199;-73
2022/05/29 07:21:09;;;;;;;5.03;4.63;;;;;;;22.81;100.00;99624.91;5071321;28;20230;-73
2022/05/29 07:23:37;;;;;;;7.10;5.25;;;;;;;22.87;100.00;99638.72;5070465;28;20555;-71
2022/05/29 07:26:06;;;;;;;4.03;3.38;;;;;;;22.29;100.00;99623.53;5071112;28;20190;-71
2022/05/29 07:28:32;;;;;;;4.68;3.38;;;;;;;22.01;100.00;99605.28;5071638;28;20199;-70
2022/05/29 07:31:00;;;;;;;6.78;3.85;;;;;;;22.31;100.00;99600.53;5068757;28;20203;-71
2022/05/29 07:33:28;;;;;;;4.55;4.15;;;;;;;21.83;100.00;99582.22;5071757;28;20194;-72
2022/05/29 07:35:54;;;;;;;6.70;5.07;;;;;;;21.67;100.00;99531.78;5071468;28;20222;-71
2022/05/29 07:38:22;;;;;;;5.35;4.38;;;;;;;21.67;100.00;99543.19;5072289;28;20199;-71
2022/05/29 07:40:49;;;;;;;4.22;3.92;;;;;;;21.97;100.00;99533.25;5073930;28;20214;-72
2022/05/29 07:43:22;;;;;;;12.82;7.90;;;;;;;22.07;100.00;99558.38;5074942;28;20194;-73
2022/05/29 07:45:50;;;;;;;7.18;4.63;;;;;;;22.11;100.00;99562.59;5068968;28;20665;-73
2022/05/29 07:48:18;;;;;;;4.85;4.32;;;;;;;21.80;100.00;99588.44;5070863;28;20222;-70
2022/05/29 07:50:46;;;;;;;4.90;4.45;;;;;;;21.60;100.00;99601.53;5087762;28;20215;-73
2022/05/29 07:53:13;;;;;;;6.63;4.80;;;;;;;21.83;100.00;99604.16;5084255;28;20198;-72
2022/05/29 07:55:40;;;;;;;11.63;5.30;;;;;;;21.81;100.00;99611.28;5091019;28;20763;-70
2022/05/29 07:58:09;;;;;;;10.38;5.93;;;;;;;21.58;100.00;99598.94;5078069;28;20574;-73
2022/05/29 08:00:37;;;;;;;5.43;4.93;;;;;;;21.48;100.00;99617.81;5075545;28;20195;-71
2022/05/29 08:03:05;;;;;;;6.10;5.38;;;;;;;21.60;100.00;99627.94;5070070;28;20202;-73
2022/05/29 08:05:36;;;;;;;6.28;5.18;;;;;;;21.95;100.00;99630.13;5079001;28;20198;-72
2022/05/29 08:08:05;;;;;;;5.28;4.78;;;;;;;21.74;100.00;99626.50;5085329;28;20631;-70
2022/05/29 08:10:33;;;;;;;5.38;4.65;;;;;;;21.49;100.00;99616.91;5086924;28;20213;-72
2022/05/29 08:13:01;;;;;;;5.72;5.22;;;;;;;21.65;100.00;99636.53;5081067;28;20642;-72
2022/05/29 08:15:27;;;;;;;5.38;4.93;;;;;;;21.62;100.00;99616.38;5090206;28;20229;-72
2022/05/29 08:17:54;;;;;;;4.68;4.28;;;;;;;21.59;100.00;99620.91;5031686;28;20700;-73
2022/05/29 08:20:21;;;;;;;6.13;4.93;;;;;;;21.29;100.00;99608.88;5052663;28;20206;-71
2022/05/29 08:22:49;;;;;;;7.75;5.97;;;;;;;21.59;100.00;99610.38;5088132;28;20195;-72
2022/05/29 08:30:51;;;;;;;7.22;4.32;;;;;;;21.24;100.00;99625.72;5068987;28;20209;-71
2022/05/29 08:33:20;;;;;;;10.23;5.45;;;;;;;21.66;100.00;99659.34;5069937;28;20202;-70
2022/05/29 08:35:48;;;;;;;6.10;5.60;;;;;;;21.62;100.00;99663.88;5073983;28;20222;-72
2022/05/29 08:38:18;;;;;;;6.43;5.10;;;;;;;21.37;100.00;99663.03;5086062;28;20546;-72
2022/05/29 08:40:49;;;;;;;4.68;4.25;;;;;;;21.12;100.00;99628.78;5034981;28;20682;-72
2022/05/29 08:43:24;;;;;;;10.32;4.55;;;;;;;21.26;100.00;99659.91;5082450;28;20197;-72
2022/05/29 08:45:52;;;;;;;5.50;4.80;;;;;;;21.25;100.00;99664.38;5045679;28;21038;-73
2022/05/29 08:48:21;;;;;;;9.77;5.55;;;;;;;21.50;100.00;99659.06;5070144;28;20203;-72
2022/05/29 08:50:58;;;;;;;5.35;4.85;;;;;;;21.43;100.00;99648.78;5069653;28;20203;-74
2022/05/29 08:53:35;;;;;;;7.95;4.38;;;;;;;21.25;100.00;99627.44;5068018;28;20222;-74
2022/05/29 08:56:12;;;;;;;7.75;6.57;;;;;;;21.35;100.00;99611.28;5067227;28;20245;-73
2022/05/29 08:58:53;;;;;;;6.43;4.95;;;;;;;21.27;100.00;99651.97;5069820;28;20615;-73
2022/05/29 09:01:30;;;;;;;6.70;5.38;;;;;;;21.47;100.00;99672.38;5048260;28;20195;-72
2022/05/29 09:04:00;;;;;;;9.02;6.22;;;;;;;21.54;100.00;99683.56;5081440;28;20190;-72
2022/05/29 09:06:31;;;;;;;7.55;6.80;;;;;;;21.71;100.00;99689.09;5071431;28;20195;-72
2022/05/29 09:09:04;;;;;;;9.35;5.50;;;;;;;21.61;100.00;99679.78;5069307;28;20230;-72
2022/05/29 09:11:35;;;;;;;9.70;5.60;;;;;;;21.42;100.00;99644.44;5069908;28;20234;-72
2022/05/29 09:14:12;;;;;;;7.95;6.18;;;;;;;22.02;100.00;99681.78;5070253;28;20217;-73
2022/05/29 09:16:43;;;;;;;6.18;5.45;;;;;;;21.96;100.00;99667.94;5069015;28;20248;-72
2022/05/29 09:19:17;;;;;;;12.85;5.57;;;;;;;21.45;100.00;99646.94;5050324;28;20199;-73
2022/05/29 09:21:53;;;;;;;6.97;4.97;;;;;;;21.79;100.00;99679.13;5050151;28;20192;-73
2022/05/29 09:24:40;;;;;;;3.47;3.17;;;;;;;21.44;100.00;99655.81;5049833;28;20218;-73
2022/05/29 09:27:10;;;;;;;5.93;3.50;;;;;;;21.52;100.00;99643.16;5050235;28;20195;-73
2022/05/29 09:29:37;;;;;;;21.00;4.85;;;;;;;21.62;100.00;99595.28;5050008;28;20207;-73
2022/05/29 09:32:05;;;;;;;5.88;4.40;;;;;;;22.18;100.00;99640.66;5085307;28;20193;-74
2022/05/29 09:34:32;;;;;;;5.45;4.72;;;;;;;22.72;100.00;99642.03;5081838;28;20199;-73
2022/05/29 09:37:07;;;;;;;5.38;3.70;;;;;;;22.69;100.00;99652.72;5069746;28;20202;-73
2022/05/29 09:39:39;;;;;;;5.00;3.92;;;;;;;22.61;100.00;99657.44;5069939;28;20195;-72
2022/05/29 09:42:09;;;;;;;4.97;4.50;;;;;;;23.11;100.00;99637.72;5069949;28;20206;-72
2022/05/29 09:44:36;;;;;;;5.30;4.80;;;;;;;23.33;100.00;99631.47;5030570;28;20192;-75
2022/05/29 09:50:06;;;;;;;5.28;3.78;;;;;;;24.21;100.00;99638.06;5072155;28;20209;-73
2022/05/29 09:52:37;;;;;;;5.95;4.53;;;;;;;23.64;100.00;99619.47;5073973;28;20686;-74
2022/05/29 09:55:13;;;;;;;4.10;3.80;;;;;;;23.55;100.00;99621.66;5069252;28;20225;-72
2022/05/29 09:57:44;;;;;;;4.10;3.80;;;;;;;22.64;100.00;99546.31;5078906;28;20206;-71
2022/05/29 10:00:24;;;;;;;5.68;5.28;;;;;;;23.29;100.00;99609.59;5083313;28;20681;-72
2022/05/29 10:02:52;;;;;;;11.52;6.85;;;;;;;23.20;100.00;99604.69;5058221;28;20934;-74
2022/05/29 10:05:26;;;;;;;6.88;6.05;;;;;;;23.00;100.00;99602.94;5057636;28;20217;-74
2022/05/29 10:07:55;;;;;;;11.10;9.63;;;;;;;23.35;100.00;99614.59;5079216;28;20230;-74
2022/05/29 10:10:35;;;;;;;10.52;8.73;;;;;;;23.45;100.00;99612.44;5073765;28;20740;-71
2022/05/29 10:13:03;;;;;;;13.20;9.18;;;;;;;23.08;100.00;99584.91;5073980;28;20199;-73
2022/05/29 10:15:39;;;;;;;10.70;8.77;;;;;;;23.38;100.00;99600.38;5073191;28;20299;-73
2022/05/29 10:18:12;;;;;;;12.93;9.57;;;;;;;23.48;100.00;99609.63;5073777;28;20202;-74
2022/05/29 10:20:41;;;;;;;15.65;9.48;;;;;;;23.56;100.00;99596.94;5079768;28;20202;-73
2022/05/29 10:23:10;;;;;;;14.10;8.63;;;;;;;23.98;100.00;99600.22;5075389;28;20204;-73
2022/05/29 10:25:41;;;;;;;11.93;9.25;;;;;;;24.35;100.00;99598.50;5064484;28;20207;-72
2022/05/29 10:28:14;;;;;;;15.18;7.43;;;;;;;23.89;100.00;99590.06;5080537;28;20214;-73
2022/05/29 10:30:45;;;;;;;13.60;7.88;;;;;;;23.32;100.00;99556.53;5076677;28;20198;-72
2022/05/29 10:33:19;;;;;;;12.65;9.55;;;;;;;23.70;100.00;99583.91;5073398;28;20211;-72
2022/05/29 10:35:46;;;;;;;10.02;7.57;;;;;;;23.76;100.00;99588.09;5073286;28;20254;-72
2022/05/29 10:38:26;;;;;;;9.57;8.60;;;;;;;23.20;100.00;99541.22;5073450;28;20280;-71
2022/05/29 10:40:55;;;;;;;9.55;8.63;;;;;;;23.13;100.00;99571.50;5073166;28;20242;-74
2022/05/29 10:43:39;;;;;;;11.48;10.18;;;;;;;23.15;100.00;99533.47;5073537;28;20191;-74
2022/05/29 10:46:11;;;;;;;10.10;9.07;;;;;;;23.33;100.00;99549.47;5092114;28;20209;-73
2022/05/29 10:48:49;;;;;;;15.00;6.50;;;;;;;23.06;100.00;99549.75;5082996;28;20264;-74
2022/05/29 10:51:22;;;;;;;9.93;9.00;;;;;;;23.12;100.00;99544.19;5076400;28;20678;-74
2022/05/29 10:54:12;;;;;;;16.25;10.18;;;;;;;23.45;100.00;99535.69;5072922;28;20199;-73
2022/05/29 10:56:54;;;;;;;13.48;8.73;;;;;;;23.28;100.00;99517.91;5052144;28;20223;-72
2022/05/29 10:59:37;;;;;;;11.90;9.88;;;;;;;23.56;100.00;99533.41;5063369;28;20199;-73
2022/05/29 11:05:31;;;;;;;10.52;8.88;;;;;;;23.21;100.00;99532.34;5074420;28;20218;-72
2022/05/29 11:08:17;;;;;;;14.68;10.38;;;;;;;23.18;100.00;99533.34;5072313;28;20250;-71
2022/05/29 11:10:57;;;;;;;11.43;9.05;;;;;;;23.44;100.00;99533.97;5070567;28;20195;-73
2022/05/29 11:13:49;;;;;;;11.43;9.05;;;;;;;23.37;100.00;99529.84;5070383;28;20230;-73
2022/05/29 11:16:22;;;;;;;10.55;8.88;;;;;;;23.24;100.00;99521.63;5071595;28;20226;-72
2022/05/29 11:19:13;;;;;;;11.27;8.02;;;;;;;23.47;100.00;99515.31;5072135;28;20219;-73
2022/05/29 11:21:52;;;;;;;9.07;7.85;;;;;;;23.89;100.00;99530.94;5069876;28;20202;-73
2022/05/29 11:24:47;;;;;;;6.53;5.93;;;;;;;23.54;100.00;99524.69;5069564;28;20252;-72
2022/05/29 11:27:38;;;;;;;18.90;11.75;;;;;;;23.71;100.00;99522.09;5071574;28;20199;-72
2022/05/29 11:30:10;;;;;;;41.13;23.85;;;;;;;23.54;100.00;99511.47;5070597;28;20678;-72
2022/05/29 11:32:54;;;;;;;13.93;9.02;;;;;;;23.88;100.00;99521.28;5071837;28;20206;-72
2022/05/29 11:35:37;;;;;;;12.02;7.05;;;;;;;23.56;100.00;99506.94;5087470;28;20218;-73
2022/05/29 11:38:23;;;;;;;13.00;8.73;;;;;;;23.69;100.00;99516.00;5085559;28;20207;-73
2022/05/29 11:40:53;;;;;;;6.78;6.13;;;;;;;23.40;100.00;99508.56;5092196;28;20202;-71
2022/05/29 11:43:25;;;;;;;10.77;6.80;;;;;;;23.20;100.00;99494.44;5092090;28;20679;-73
2022/05/29 11:51:41;;;;;;;6.45;5.85;;;;;;;23.74;100.00;99482.25;5070200;28;20202;-73
2022/05/29 11:54:13;;;;;;;10.00;7.43;;;;;;;23.88;100.00;99476.25;5071579;28;20203;-72
2022/05/29 11:56:44;;;;;;;5.78;5.22;;;;;;;23.52;100.00;99425.97;5071330;28;20261;-72
2022/05/29 11:59:21;;;;;;;8.15;4.68;;;;;;;23.80;100.00;99459.88;5070842;28;20210;-72
2022/05/29 12:01:53;;;;;;;8.57;6.13;;;;;;;23.88;100.00;99437.41;5071484;28;20203;-72
2022/05/29 12:04:29;;;;;;;9.27;7.05;;;;;;;24.53;100.00;99447.34;5070917;28;20202;-71
2022/05/29 12:07:05;;;;;;;6.00;5.47;;;;;;;24.68;100.00;99443.03;5071260;28;20213;-72
2022/05/29 12:09:37;;;;;;;7.95;5.45;;;;;;;24.83;100.00;99442.25;5052030;28;20230;-72
2022/05/29 12:12:12;;;;;;;6.70;6.03;;;;;;;25.31;100.00;99451.13;5071169;28;20226;-71